createdAt,value
2022-10-15T00:00:24.468Z,99955.84
2022-10-15T00:02:55.764Z,99959.38
2022-10-15T00:05:27.085Z,99961.19
2022-10-15T00:07:58.361Z,99955.84
2022-10-15T00:10:29.684Z,99942.84
2022-10-15T00:15:38.139Z,99948.22
2022-10-15T00:18:09.413Z,99955.13
2022-10-15T00:20:41.905Z,99955.22
2022-10-15T00:23:13.153Z,99953.47
2022-10-15T00:25:44.414Z,99957.97
2022-10-15T00:28:15.818Z,99956.16
2022-10-15T00:30:47.060Z,99955.28
2022-10-15T00:33:18.308Z,99956.16
2022-10-15T00:36:01.576Z,99955.28
2022-10-15T00:38:33.791Z,99955.38
2022-10-15T00:41:06.925Z,99960.78
2022-10-15T00:43:49.988Z,99950.09
2022-10-15T00:46:35.099Z,99954.56
2022-10-15T00:49:26.380Z,99959.06
2022-10-15T00:52:03.009Z,99953.72
2022-10-15T00:54:40.634Z,99954.66
2022-10-15T00:57:13.261Z,99956.44
2022-10-15T00:59:50.789Z,99949.69
2022-10-15T01:02:22.339Z,99960.22
2022-10-15T01:04:55.673Z,99946.13
2022-10-15T01:07:27.068Z,99958.63
2022-10-15T01:09:58.571Z,99956.97
2022-10-15T01:12:45.165Z,99965.16
2022-10-15T01:15:16.351Z,99960.03
2022-10-15T01:17:55.116Z,99956.06
2022-10-15T01:20:49.938Z,99954.63
2022-10-15T01:23:39.427Z,99957.81
2022-10-15T01:26:24.480Z,99953.84
2022-10-15T01:29:31.224Z,99956.94
2022-10-15T01:32:11.471Z,99963.72
2022-10-15T01:35:19.834Z,99973.03
2022-10-15T01:38:09.813Z,99959.03
2022-10-15T01:40:47.041Z,99964.59
2022-10-15T01:43:28.992Z,99961.84
2022-10-15T01:46:09.279Z,99956.63
2022-10-15T01:48:41.738Z,99956.88
2022-10-15T01:51:16.834Z,99956.22
2022-10-15T01:53:50.469Z,99969.50
2022-10-15T01:56:24.334Z,99978.53
2022-10-15T01:58:56.594Z,99972.31
2022-10-15T02:01:28.460Z,99962.91
2022-10-15T02:03:59.871Z,99974.31
2022-10-15T02:06:43.926Z,99971.72
2022-10-15T02:09:28.332Z,99977.91
2022-10-15T02:12:27.268Z,99978.94
2022-10-15T02:15:27.456Z,99967.66
2022-10-15T02:18:06.123Z,99967.25
2022-10-15T02:20:51.046Z,99970.44
2022-10-15T02:23:37.572Z,99954.84
2022-10-15T02:26:12.153Z,99938.31
2022-10-15T02:28:50.261Z,99934.78
2022-10-15T02:31:23.768Z,99943.50
2022-10-15T02:34:00.726Z,99933.66
2022-10-15T02:36:32.784Z,99923.84
2022-10-15T02:39:05.404Z,99925.56
2022-10-15T02:41:36.981Z,99935.25
2022-10-15T02:44:08.324Z,99931.50
2022-10-15T02:46:39.638Z,99915.72
2022-10-15T02:49:10.911Z,99933.91
2022-10-15T02:51:42.205Z,99927.72
2022-10-15T02:54:13.497Z,99924.31
2022-10-15T02:56:44.772Z,99932.13
2022-10-15T02:59:16.201Z,99932.19
2022-10-15T03:01:47.602Z,99934.91
2022-10-15T03:04:18.862Z,99932.31
2022-10-15T03:06:50.790Z,99944.72
2022-10-15T03:09:22.106Z,99938.56
2022-10-15T03:11:53.369Z,99948.97
2022-10-15T03:14:24.786Z,99947.97
2022-10-15T03:16:56.113Z,99951.44
2022-10-15T03:19:27.378Z,99946.84
2022-10-15T03:21:58.706Z,99925.31
2022-10-15T03:24:30.458Z,99947.78
2022-10-15T03:27:01.810Z,99935.31
2022-10-15T03:29:33.082Z,99944.13
2022-10-15T03:32:04.557Z,99939.91
2022-10-15T03:34:35.824Z,99940.56
2022-10-15T03:37:07.104Z,99939.78
2022-10-15T03:39:38.354Z,99940.66
2022-10-15T03:42:09.625Z,99945.97
2022-10-15T03:44:41.104Z,99945.13
2022-10-15T03:47:12.452Z,99938.03
2022-10-15T03:49:43.783Z,99944.31
2022-10-15T03:52:15.566Z,99938.91
2022-10-15T03:54:46.833Z,99941.50
2022-10-15T03:57:18.154Z,99944.25
2022-10-15T03:59:49.536Z,99946.91
2022-10-15T04:02:20.995Z,99941.66
2022-10-15T04:04:53.418Z,99944.31
2022-10-15T04:07:25.225Z,99953.19
2022-10-15T04:09:56.481Z,99949.84
2022-10-15T04:12:27.873Z,99944.66
2022-10-15T04:14:59.143Z,99954.19
2022-10-15T04:17:30.508Z,99962.19
2022-10-15T04:20:01.857Z,99964.13
2022-10-15T04:22:33.184Z,99955.31
2022-10-15T04:25:05.283Z,99954.59
2022-10-15T04:27:36.932Z,99958.19
2022-10-15T04:30:08.936Z,99944.97
2022-10-15T04:32:40.302Z,99948.31
2022-10-15T04:35:11.886Z,99922.19
2022-10-15T04:37:43.151Z,99953.50
2022-10-15T04:40:15.098Z,99956.19
2022-10-15T04:42:46.356Z,99957.19
2022-10-15T04:45:17.852Z,99965.06
2022-10-15T04:47:49.251Z,99965.06
2022-10-15T04:50:20.500Z,99961.78
2022-10-15T04:52:51.794Z,99972.31
2022-10-15T04:55:23.040Z,99965.31
2022-10-15T04:57:54.381Z,99958.56
2022-10-15T05:00:25.803Z,99962.91
2022-10-15T05:02:57.102Z,99963.03
2022-10-15T05:05:28.346Z,99978.84
2022-10-15T05:08:04.384Z,99980.72
2022-10-15T05:10:35.755Z,99968.50
2022-10-15T05:13:07.191Z,99981.66
2022-10-15T05:15:38.440Z,99978.97
2022-10-15T05:18:09.846Z,99971.25
2022-10-15T05:20:41.093Z,99986.97
2022-10-15T05:23:12.363Z,99979.91
2022-10-15T05:25:43.630Z,99979.91
2022-10-15T05:28:14.882Z,99987.91
2022-10-15T05:30:46.226Z,99987.84
2022-10-15T05:33:17.504Z,99992.31
2022-10-15T05:35:48.814Z,99990.50
2022-10-15T05:38:20.082Z,99989.59
2022-10-15T05:40:51.320Z,99983.50
2022-10-15T05:43:22.682Z,99985.84
2022-10-15T05:45:54.957Z,99985.78
2022-10-15T05:48:26.228Z,99987.53
2022-10-15T05:51:10.819Z,99988.31
2022-10-15T05:53:43.213Z,99985.59
2022-10-15T05:56:16.663Z,99983.78
2022-10-15T05:58:47.962Z,99995.25
2022-10-15T06:01:19.792Z,99983.00
2022-10-15T06:03:51.354Z,99992.66
2022-10-15T06:06:25.048Z,99997.06
2022-10-15T06:08:58.448Z,99984.72
2022-10-15T06:11:29.784Z,99995.19
2022-10-15T06:14:01.032Z,99990.94
2022-10-15T06:16:33.262Z,100011.00
2022-10-15T06:19:04.680Z,100010.19
2022-10-15T06:21:35.933Z,100015.53
2022-10-15T06:24:09.922Z,100015.53
2022-10-15T06:26:41.588Z,100008.28
2022-10-15T06:29:12.936Z,100014.47
2022-10-15T06:31:44.197Z,100024.09
2022-10-15T06:34:15.549Z,100018.63
2022-10-15T06:36:46.797Z,100014.22
2022-10-15T06:39:18.194Z,100008.22
2022-10-15T06:41:49.451Z,100018.41
2022-10-15T06:44:20.797Z,100009.59
2022-10-15T06:46:52.079Z,100021.81
2022-10-15T06:49:23.362Z,100018.88
2022-10-15T06:51:55.458Z,100010.63
2022-10-15T06:54:28.737Z,99990.59
2022-10-15T06:57:00.000Z,100019.94
2022-10-15T06:59:31.290Z,100018.91
2022-10-15T07:02:02.682Z,100018.63
2022-10-15T07:04:34.109Z,100020.16
2022-10-15T07:07:05.834Z,100018.13
2022-10-15T07:09:37.290Z,100022.19
2022-10-15T07:12:09.131Z,99998.44
2022-10-15T07:14:42.405Z,100013.91
2022-10-15T07:17:13.982Z,100026.81
2022-10-15T07:19:45.740Z,100024.94
2022-10-15T07:22:17.170Z,100031.09
2022-10-15T07:24:48.421Z,100038.03
2022-10-15T07:27:20.673Z,100038.75
2022-10-15T07:29:52.088Z,100039.41
2022-10-15T07:32:23.708Z,100035.66
2022-10-15T07:34:55.167Z,100034.50
2022-10-15T07:37:26.725Z,100038.69
2022-10-15T07:39:58.008Z,100031.75
2022-10-15T07:42:29.261Z,100035.94
2022-10-15T07:45:00.592Z,100037.53
2022-10-15T07:47:31.879Z,100046.13
2022-10-15T07:50:03.204Z,100049.38
2022-10-15T07:52:34.551Z,100046.50
2022-10-15T07:55:07.163Z,100048.00
2022-10-15T07:57:39.029Z,100050.38
2022-10-15T08:00:10.935Z,100040.34
2022-10-15T08:02:42.251Z,100053.19
2022-10-15T08:05:13.537Z,100044.00
2022-10-15T08:07:44.863Z,100040.22
2022-10-15T08:10:16.298Z,100037.47
2022-10-15T08:12:47.558Z,100049.81
2022-10-15T08:15:19.024Z,100048.59
2022-10-15T08:17:50.297Z,100042.91
2022-10-15T08:20:21.633Z,100048.13
2022-10-15T08:22:52.938Z,100049.16
2022-10-15T08:25:24.657Z,100051.81
2022-10-15T08:27:56.378Z,100051.75
2022-10-15T08:30:27.844Z,100055.34
2022-10-15T08:32:59.099Z,100056.22
2022-10-15T08:35:35.162Z,100059.69
2022-10-15T08:38:06.370Z,100058.53
2022-10-15T08:40:38.380Z,100051.13
2022-10-15T08:43:39.042Z,100061.22
2022-10-15T08:48:57.957Z,100057.56
2022-10-15T08:51:44.173Z,100056.78
2022-10-15T08:54:18.503Z,100048.84
2022-10-15T08:57:22.234Z,100056.41
2022-10-15T09:00:05.218Z,100052.34
2022-10-15T09:02:58.002Z,100056.69
2022-10-15T09:05:42.902Z,100056.16
2022-10-15T09:08:45.335Z,100050.72
2022-10-15T09:11:43.986Z,100055.81
2022-10-15T09:14:27.505Z,100067.56
2022-10-15T09:17:04.392Z,100062.63
2022-10-15T09:19:37.578Z,100059.00
2022-10-15T09:22:14.743Z,100062.38
2022-10-15T09:24:46.354Z,100062.53
2022-10-15T09:27:34.909Z,100054.94
2022-10-15T09:30:30.222Z,100041.63
2022-10-15T09:33:17.740Z,100054.44
2022-10-15T09:35:56.784Z,100053.94
2022-10-15T09:38:53.479Z,100058.88
2022-10-15T09:42:06.545Z,100050.16
2022-10-15T09:44:41.644Z,100059.94
2022-10-15T09:47:31.140Z,100053.22
2022-10-15T09:50:07.556Z,100059.22
2022-10-15T09:53:09.791Z,100057.41
2022-10-15T09:55:47.579Z,100051.19
2022-10-15T09:58:25.738Z,100052.19
2022-10-15T10:01:04.603Z,100053.53
2022-10-15T10:03:36.967Z,100064.06
2022-10-15T10:06:13.686Z,100058.47
2022-10-15T10:08:54.385Z,100047.25
2022-10-15T10:11:27.028Z,100054.84
2022-10-15T10:14:00.681Z,100033.25
2022-10-15T10:16:33.715Z,100051.31
2022-10-15T10:19:15.448Z,100048.53
2022-10-15T10:21:46.767Z,100052.66
2022-10-15T10:24:25.877Z,100046.31
2022-10-15T10:26:58.226Z,100044.00
2022-10-15T10:29:40.192Z,100041.69
2022-10-15T10:32:21.596Z,100046.97
2022-10-15T10:34:53.990Z,100046.97
2022-10-15T10:37:26.063Z,100050.22
2022-10-15T10:40:00.411Z,100041.44
2022-10-15T10:42:34.430Z,100049.53
2022-10-15T10:45:22.307Z,100036.22
2022-10-15T10:47:53.948Z,100047.44
2022-10-15T10:50:40.545Z,100039.25
2022-10-15T10:53:21.810Z,100029.75
2022-10-15T10:55:55.350Z,100028.72
2022-10-15T10:58:30.930Z,100023.53
2022-10-15T11:01:02.236Z,100024.28
2022-10-15T11:03:38.292Z,100023.41
2022-10-15T11:06:21.865Z,100010.16
2022-10-15T11:09:06.922Z,100020.09
2022-10-15T11:11:48.797Z,100008.34
2022-10-15T11:14:51.851Z,100010.06
2022-10-15T11:17:44.174Z,100011.50
2022-10-15T11:20:44.233Z,100012.56
2022-10-15T11:23:47.031Z,100012.78
2022-10-15T11:26:52.066Z,100017.75
2022-10-15T11:29:49.525Z,100006.47
2022-10-15T11:33:07.032Z,100015.56
2022-10-15T11:36:05.906Z,100015.88
2022-10-15T11:39:16.308Z,100008.97
2022-10-15T11:42:24.006Z,100004.88
2022-10-15T11:45:01.277Z,100006.41
2022-10-15T11:47:58.153Z,99998.38
2022-10-15T11:50:45.568Z,100000.53
2022-10-15T11:53:38.568Z,100008.91
2022-10-15T11:56:18.898Z,100004.72
2022-10-15T11:59:19.457Z,99999.28
2022-10-15T12:02:05.081Z,99991.72
2022-10-15T12:04:44.285Z,99997.34
2022-10-15T12:07:21.825Z,99981.38
2022-10-15T12:09:59.813Z,99984.19
2022-10-15T12:12:41.265Z,99974.47
2022-10-15T12:15:39.306Z,99977.28
2022-10-15T12:18:29.158Z,99968.34
2022-10-15T12:21:00.549Z,99975.13
2022-10-15T12:23:34.563Z,99972.31
2022-10-15T12:26:28.033Z,99961.06
2022-10-15T12:29:03.256Z,99963.28
2022-10-15T12:31:49.888Z,99955.91
2022-10-15T12:34:28.544Z,99948.22
2022-10-15T12:37:03.306Z,99955.38
2022-10-15T12:39:51.696Z,99952.28
2022-10-15T12:42:39.292Z,99958.66
2022-10-15T12:45:22.189Z,99970.75
2022-10-15T12:47:55.930Z,99966.59
2022-10-15T12:50:31.058Z,99963.25
2022-10-15T12:53:32.592Z,99960.56
2022-10-15T12:56:13.589Z,99969.09
2022-10-15T12:58:47.508Z,99964.13
2022-10-15T13:01:18.766Z,99969.72
2022-10-15T13:03:50.281Z,99968.66
2022-10-15T13:06:21.789Z,99964.66
2022-10-15T13:09:20.870Z,99962.94
2022-10-15T13:11:54.210Z,99957.66
2022-10-15T13:14:33.456Z,99958.81
2022-10-15T13:17:14.647Z,99959.50
2022-10-15T13:20:08.043Z,99956.31
2022-10-15T13:22:39.324Z,99953.75
2022-10-15T13:25:17.780Z,99940.06
2022-10-15T13:27:49.024Z,99932.66
2022-10-15T13:30:20.350Z,99936.53
2022-10-15T13:32:53.908Z,99931.25
2022-10-15T13:35:29.527Z,99926.69
2022-10-15T13:38:03.355Z,99916.66
2022-10-15T13:40:34.769Z,99924.75
2022-10-15T13:43:17.292Z,99911.78
2022-10-15T13:45:53.578Z,99915.50
2022-10-15T13:48:27.858Z,99906.03
2022-10-15T13:51:04.324Z,99902.84
2022-10-15T13:53:40.084Z,99900.13
2022-10-15T13:56:29.818Z,99900.25
2022-10-15T13:59:02.381Z,99895.09
2022-10-15T14:01:34.814Z,99890.56
2022-10-15T14:04:16.995Z,99883.44
2022-10-15T14:07:04.193Z,99885.16
2022-10-15T14:09:38.362Z,99879.13
2022-10-15T14:12:11.334Z,99891.41
2022-10-15T14:14:46.735Z,99885.19
2022-10-15T14:17:24.109Z,99887.78
2022-10-15T14:20:25.895Z,99884.97
2022-10-15T14:22:53.516Z,99879.56
2022-10-15T14:25:26.111Z,99890.66
2022-10-15T14:27:57.485Z,99871.25
2022-10-15T14:30:33.013Z,99883.22
2022-10-15T14:33:04.552Z,99886.66
2022-10-15T14:35:37.176Z,99875.69
2022-10-15T14:38:08.381Z,99892.50
2022-10-15T14:40:39.664Z,99887.66
2022-10-15T14:43:17.048Z,99881.06
2022-10-15T14:45:51.417Z,99873.75
2022-10-15T14:48:37.130Z,99868.47
2022-10-15T14:51:23.804Z,99857.81
2022-10-15T14:53:55.511Z,99846.09
2022-10-15T14:56:32.964Z,99862.78
2022-10-15T14:59:04.469Z,99872.91
2022-10-15T15:01:35.829Z,99876.78
2022-10-15T15:04:38.081Z,99873.47
2022-10-15T15:07:16.433Z,99879.22
2022-10-15T15:09:49.117Z,99873.59
2022-10-15T15:12:27.793Z,99874.66
2022-10-15T15:14:59.717Z,99865.38
2022-10-15T15:17:31.190Z,99866.06
2022-10-15T15:22:40.253Z,99877.94
2022-10-15T15:25:28.209Z,99865.50
2022-10-15T15:28:00.595Z,99877.38
2022-10-15T15:30:34.350Z,99865.75
2022-10-15T15:33:05.746Z,99872.41
2022-10-15T15:35:44.466Z,99860.41
2022-10-15T15:38:16.096Z,99868.09
2022-10-15T15:40:48.805Z,99880.84
2022-10-15T15:43:20.148Z,99875.88
2022-10-15T15:45:51.487Z,99870.28
2022-10-15T15:48:22.821Z,99878.53
2022-10-15T15:50:55.769Z,99883.44
2022-10-15T15:53:27.115Z,99881.22
2022-10-15T15:55:58.558Z,99859.91
2022-10-15T15:58:29.818Z,99878.69
2022-10-15T16:01:01.094Z,99884.63
2022-10-15T16:03:32.395Z,99881.72
2022-10-15T16:06:07.435Z,99879.66
2022-10-15T16:08:38.751Z,99886.44
2022-10-15T16:11:10.058Z,99878.16
2022-10-15T16:13:42.960Z,99880.25
2022-10-15T16:16:14.218Z,99883.97
2022-10-15T16:18:45.574Z,99881.66
2022-10-15T16:21:24.783Z,99881.47
2022-10-15T16:23:56.113Z,99878.88
2022-10-15T16:26:27.613Z,99882.50
2022-10-15T16:28:59.498Z,99885.28
2022-10-15T16:31:33.166Z,99890.72
2022-10-15T16:34:04.769Z,99884.75
2022-10-15T16:36:36.298Z,99881.22
2022-10-15T16:39:07.684Z,99879.66
2022-10-15T16:41:38.976Z,99879.94
2022-10-15T16:44:10.225Z,99884.59
2022-10-15T16:46:41.542Z,99877.88
2022-10-15T16:49:12.822Z,99883.91
2022-10-15T16:51:44.090Z,99882.19
2022-10-15T16:54:15.676Z,99879.69
2022-10-15T16:56:50.460Z,99875.44
2022-10-15T16:59:24.231Z,99896.72
2022-10-15T17:01:55.807Z,99890.50
2022-10-15T17:04:27.360Z,99887.13
2022-10-15T17:06:58.662Z,99898.00
2022-10-15T17:09:31.054Z,99889.28
2022-10-15T17:12:02.323Z,99898.34
2022-10-15T17:14:33.634Z,99904.84
2022-10-15T17:17:05.024Z,99905.78
2022-10-15T17:19:36.338Z,99908.47
2022-10-15T17:22:07.611Z,99910.19
2022-10-15T17:24:39.275Z,99906.72
2022-10-15T17:27:10.585Z,99913.81
2022-10-15T17:29:42.005Z,99912.25
2022-10-15T17:32:13.282Z,99910.34
2022-10-15T17:34:44.680Z,99905.16
2022-10-15T17:37:16.092Z,99910.69
2022-10-15T17:39:47.501Z,99914.41
2022-10-15T17:42:19.109Z,99918.97
2022-10-15T17:44:50.718Z,99929.69
2022-10-15T17:47:22.051Z,99929.78
2022-10-15T17:49:53.342Z,99927.09
2022-10-15T17:52:24.946Z,99927.09
2022-10-15T17:54:56.219Z,99928.91
2022-10-15T17:57:28.102Z,99939.63
2022-10-15T17:59:59.999Z,99912.75
2022-10-15T18:02:31.361Z,99924.50
2022-10-15T18:05:02.792Z,99917.50
2022-10-15T18:07:34.752Z,99933.41
2022-10-15T18:10:07.290Z,99930.13
2022-10-15T18:12:38.544Z,99924.31
2022-10-15T18:15:10.401Z,99932.75
2022-10-15T18:17:41.676Z,99928.84
2022-10-15T18:20:14.396Z,99916.34
2022-10-15T18:22:45.688Z,99942.78
2022-10-15T18:25:17.349Z,99943.75
2022-10-15T18:27:48.596Z,99940.44
2022-10-15T18:30:19.947Z,99958.63
2022-10-15T18:32:53.235Z,99951.22
2022-10-15T18:35:27.191Z,99945.94
2022-10-15T18:37:58.486Z,99959.47
2022-10-15T18:40:40.892Z,99953.66
2022-10-15T18:43:15.034Z,99957.69
2022-10-15T18:45:47.605Z,99968.63
2022-10-15T18:48:18.980Z,99971.47
2022-10-15T18:50:52.673Z,99975.16
2022-10-15T18:53:25.545Z,99979.72
2022-10-15T18:55:56.861Z,99987.91
2022-10-15T18:58:28.149Z,99991.44
2022-10-15T19:01:39.103Z,99990.44
2022-10-15T19:04:13.792Z,99997.44
2022-10-15T19:06:48.405Z,100003.50
2022-10-15T19:09:26.193Z,99998.94
2022-10-15T19:11:58.465Z,100007.03
2022-10-15T19:14:29.821Z,100012.53
2022-10-15T19:17:01.186Z,100013.63
2022-10-15T19:19:32.601Z,100012.22
2022-10-15T19:22:04.189Z,100014.09
2022-10-15T19:24:35.541Z,100011.50
2022-10-15T19:27:06.955Z,100014.09
2022-10-15T19:29:39.163Z,99998.44
2022-10-15T19:32:10.898Z,100021.81
2022-10-15T19:34:42.303Z,100016.47
2022-10-15T19:37:13.545Z,100020.16
2022-10-15T19:39:48.220Z,100015.91
2022-10-15T19:42:19.529Z,100024.97
2022-10-15T19:44:50.797Z,100032.19
2022-10-15T19:47:22.089Z,100033.94
2022-10-15T19:49:54.906Z,100044.41
2022-10-15T19:52:26.189Z,100030.72
2022-10-15T19:54:57.535Z,100043.63
2022-10-15T19:57:28.924Z,100045.94
2022-10-15T20:00:01.995Z,100054.50
2022-10-15T20:02:33.254Z,100061.38
2022-10-15T20:05:04.948Z,100070.97
2022-10-15T20:07:36.496Z,100066.41
2022-10-15T20:10:08.593Z,100061.84
2022-10-15T20:12:40.136Z,100074.44
2022-10-15T20:15:11.693Z,100071.13
2022-10-15T20:17:43.360Z,100074.44
2022-10-15T20:20:15.082Z,100074.38
2022-10-15T20:22:46.453Z,100070.03
2022-10-15T20:25:17.728Z,100083.88
2022-10-15T20:27:49.025Z,100089.09
2022-10-15T20:30:20.434Z,100086.25
2022-10-15T20:32:51.681Z,100087.13
2022-10-15T20:35:23.163Z,100084.28
2022-10-15T20:37:54.409Z,100093.19
2022-10-15T20:40:25.815Z,100090.03
2022-10-15T20:42:57.130Z,100108.69
2022-10-15T20:45:34.415Z,100107.03
2022-10-15T20:48:07.682Z,100102.72
2022-10-15T20:50:39.138Z,100120.03
2022-10-15T20:53:10.531Z,100137.19
2022-10-15T20:55:41.902Z,100135.69
2022-10-15T20:58:13.416Z,100146.47
2022-10-15T21:00:44.788Z,100159.22
2022-10-15T21:03:16.045Z,100162.09
2022-10-15T21:05:47.309Z,100156.97
2022-10-15T21:08:18.651Z,100162.84
2022-10-15T21:10:50.076Z,100169.13
2022-10-15T21:13:21.812Z,100173.84
2022-10-15T21:15:58.118Z,100166.09
2022-10-15T21:18:29.622Z,100183.31
2022-10-15T21:21:12.196Z,100185.44
2022-10-15T21:23:43.719Z,100183.94
2022-10-15T21:26:17.012Z,100179.75
2022-10-15T21:28:48.370Z,100189.78
2022-10-15T21:31:19.665Z,100193.53
2022-10-15T21:33:51.588Z,100199.31
2022-10-15T21:36:27.854Z,100203.78
2022-10-15T21:39:02.266Z,100207.53
2022-10-15T21:41:36.166Z,100205.00
2022-10-15T21:44:08.569Z,100215.81
2022-10-15T21:46:41.323Z,100216.91
2022-10-15T21:49:13.839Z,100220.63
2022-10-15T21:51:45.320Z,100217.16
2022-10-15T21:54:16.606Z,100217.44
2022-10-15T21:56:47.887Z,100200.06
2022-10-15T21:59:19.179Z,100221.19
2022-10-15T22:01:50.483Z,100223.13
2022-10-15T22:04:21.833Z,100220.63
2022-10-15T22:06:53.090Z,100223.56
2022-10-15T22:09:24.452Z,100212.34
2022-10-15T22:11:55.725Z,100228.38
2022-10-15T22:14:27.009Z,100230.31
2022-10-15T22:16:58.390Z,100226.09
2022-10-15T22:19:29.641Z,100231.56
2022-10-15T22:22:00.972Z,100238.97
2022-10-15T22:24:32.760Z,100246.19
2022-10-15T22:27:04.145Z,100239.25
2022-10-15T22:29:35.619Z,100233.16
2022-10-15T22:32:06.957Z,100248.38
2022-10-15T22:34:38.220Z,100243.16
2022-10-15T22:37:09.581Z,100238.78
2022-10-15T22:39:40.902Z,100246.03
2022-10-15T22:42:12.302Z,100248.78
2022-10-15T22:44:43.561Z,100246.28
2022-10-15T22:47:14.855Z,100236.72
2022-10-15T22:49:46.121Z,100241.25
2022-10-15T22:52:17.382Z,100233.63
2022-10-15T22:54:50.150Z,100237.28
2022-10-15T22:57:21.418Z,100238.97
2022-10-15T22:59:55.924Z,100240.06
2022-10-15T23:02:29.931Z,100246.16
2022-10-15T23:05:01.229Z,100248.06
2022-10-15T23:07:32.496Z,100257.88
2022-10-15T23:10:04.266Z,100257.94
2022-10-15T23:12:38.647Z,100258.88
2022-10-15T23:15:10.093Z,100258.94
2022-10-15T23:17:41.437Z,100254.56
2022-10-15T23:20:12.714Z,100260.03
2022-10-15T23:22:43.986Z,100257.44
2022-10-15T23:25:15.374Z,100262.81
2022-10-15T23:27:46.726Z,100262.94
2022-10-15T23:30:24.732Z,100255.97
2022-10-15T23:32:56.419Z,100259.50
2022-10-15T23:35:27.759Z,100267.56
2022-10-15T23:37:59.070Z,100268.56
2022-10-15T23:40:30.545Z,100266.81
2022-10-15T23:43:02.203Z,100266.06
2022-10-15T23:45:35.741Z,100267.94
2022-10-15T23:48:09.317Z,100268.91
2022-10-15T23:50:40.637Z,100261.84
2022-10-15T23:53:12.076Z,100241.94
2022-10-15T23:55:43.635Z,100264.78
2022-10-15T23:58:15.201Z,100266.59
